createdAt,value
2023-10-02T05:31:09.079Z,12.38
2023-10-02T05:33:39.037Z,12.43
2023-10-02T05:36:11.824Z,12.54
2023-10-02T05:38:40.279Z,12.53
2023-10-02T05:41:13.826Z,12.46
2023-10-02T05:43:57.187Z,12.42
2023-10-02T05:46:47.563Z,12.45
2023-10-02T05:49:16.814Z,12.52
2023-10-02T05:51:49.304Z,12.57
2023-10-02T05:54:20.426Z,12.69
2023-10-02T05:56:49.008Z,12.80
2023-10-02T05:59:26.281Z,12.88
2023-10-02T06:01:56.261Z,12.95
2023-10-02T06:04:24.928Z,13.03
2023-10-02T06:07:02.678Z,13.14
2023-10-02T06:09:47.993Z,13.22
2023-10-02T06:12:19.391Z,13.33
2023-10-02T06:14:48.721Z,13.45
2023-10-02T06:17:18.593Z,13.53
2023-10-02T06:19:49.799Z,13.67
2023-10-02T06:22:20.745Z,13.78
2023-10-02T06:24:49.743Z,13.86
2023-10-02T06:27:18.745Z,13.99
2023-10-02T06:29:46.072Z,14.10
2023-10-02T06:32:20.773Z,14.25
2023-10-02T06:34:52.345Z,14.45
2023-10-02T06:37:26.891Z,15.78
2023-10-02T06:40:06.019Z,18.11
2023-10-02T06:42:36.051Z,20.48
2023-10-02T06:45:04.379Z,22.34
2023-10-02T06:47:36.281Z,24.09
2023-10-02T06:50:26.879Z,25.57
2023-10-02T06:52:55.708Z,27.17
2023-10-02T06:55:26.297Z,28.29
2023-10-02T06:57:54.602Z,29.23
2023-10-02T07:00:24.266Z,29.30
2023-10-02T07:02:59.492Z,28.81
2023-10-02T07:05:34.104Z,28.41
2023-10-02T07:08:19.451Z,28.03
2023-10-02T07:10:49.394Z,27.22
2023-10-02T07:13:21.623Z,26.80
2023-10-02T07:15:58.632Z,25.76
2023-10-02T07:18:36.805Z,24.72
2023-10-02T07:21:08.984Z,23.81
2023-10-02T07:23:39.148Z,22.94
2023-10-02T07:26:08.427Z,22.13
2023-10-02T07:28:51.043Z,21.31
2023-10-02T07:31:20.230Z,20.82
2023-10-02T07:33:49.003Z,20.61
2023-10-02T07:36:18.600Z,20.49
2023-10-02T07:38:47.700Z,20.45
2023-10-02T07:41:24.940Z,20.13
2023-10-02T07:43:55.218Z,20.15
2023-10-02T07:46:24.663Z,20.21
2023-10-02T07:48:58.791Z,20.10
2023-10-02T07:51:36.613Z,20.16
2023-10-02T07:54:05.583Z,19.97
2023-10-02T07:56:34.852Z,19.90
2023-10-02T07:59:03.486Z,19.84
2023-10-02T08:01:35.481Z,19.83
2023-10-02T08:04:04.640Z,19.77
2023-10-02T08:06:41.594Z,19.76
2023-10-02T08:09:38.016Z,19.77
2023-10-02T08:12:09.943Z,19.92
2023-10-02T08:14:43.396Z,20.11
2023-10-02T08:17:23.729Z,19.94
2023-10-02T08:19:58.161Z,19.90
2023-10-02T08:22:37.337Z,20.03
2023-10-02T08:25:14.839Z,20.05
2023-10-02T08:27:43.747Z,20.11
2023-10-02T08:30:29.047Z,20.22
2023-10-02T08:33:10.825Z,20.36
2023-10-02T08:35:47.579Z,20.42
2023-10-02T08:38:24.178Z,20.32
2023-10-02T08:40:58.733Z,20.43
2023-10-02T08:43:28.502Z,20.51
2023-10-02T08:45:57.033Z,20.63
2023-10-02T08:48:26.713Z,20.68
2023-10-02T08:50:59.053Z,20.81
2023-10-02T08:53:29.115Z,21.14
2023-10-02T08:56:24.054Z,21.17
2023-10-02T08:59:13.102Z,21.05
2023-10-02T09:01:41.744Z,21.04
2023-10-02T09:04:29.021Z,21.15
2023-10-02T09:07:01.072Z,20.91
2023-10-02T09:09:38.043Z,21.16
2023-10-02T09:12:16.284Z,21.31
2023-10-02T09:14:45.116Z,21.40
2023-10-02T09:17:21.747Z,21.58
2023-10-02T09:20:01.625Z,21.53
2023-10-02T09:22:30.538Z,21.61
2023-10-02T09:25:13.651Z,21.51
2023-10-02T09:27:55.997Z,21.55
2023-10-02T09:30:42.171Z,21.52
2023-10-02T09:33:23.647Z,21.42
2023-10-02T09:36:42.206Z,21.51
2023-10-02T09:38:57.835Z,21.50
2023-10-02T09:41:32.611Z,21.48
2023-10-02T09:44:13.857Z,21.51
2023-10-02T09:46:43.132Z,21.55
2023-10-02T09:49:22.902Z,21.57
2023-10-02T09:52:12.042Z,21.55
2023-10-02T09:54:43.561Z,21.39
2023-10-02T09:57:19.438Z,21.56
2023-10-02T09:59:48.342Z,21.56
2023-10-02T10:02:39.345Z,21.63
2023-10-02T10:05:27.040Z,21.75
2023-10-02T10:08:21.677Z,21.88
2023-10-02T10:10:54.414Z,21.96
2023-10-02T10:13:35.320Z,21.78
2023-10-02T10:16:39.631Z,21.82
2023-10-02T10:19:28.490Z,21.70
2023-10-02T10:22:02.006Z,21.63
2023-10-02T10:24:57.787Z,21.57
2023-10-02T10:27:56.017Z,21.60
2023-10-02T10:30:36.530Z,21.50
2023-10-02T10:33:42.712Z,21.46
2023-10-02T10:36:36.280Z,21.43
2023-10-02T10:39:33.078Z,21.34
2023-10-02T10:42:02.193Z,21.14
2023-10-02T10:44:36.747Z,21.21
2023-10-02T10:47:08.232Z,21.08
2023-10-02T10:49:55.306Z,21.06
2023-10-02T10:52:36.073Z,21.13
2023-10-02T10:55:06.738Z,21.05
2023-10-02T10:57:52.960Z,20.99
2023-10-02T11:00:28.146Z,20.91
2023-10-02T11:03:09.637Z,21.04
2023-10-02T11:05:39.417Z,21.14
2023-10-02T11:08:29.530Z,21.27
2023-10-02T11:11:26.068Z,21.26
2023-10-02T11:14:00.440Z,21.27
2023-10-02T11:16:33.577Z,21.33
2023-10-02T11:19:31.742Z,21.39
2023-10-02T11:22:20.270Z,21.42
2023-10-02T11:25:19.206Z,21.40
2023-10-02T11:27:58.609Z,21.50
2023-10-02T11:30:33.930Z,21.55
2023-10-02T11:33:06.408Z,21.60
2023-10-02T11:35:41.459Z,21.47
2023-10-02T11:38:11.283Z,21.44
2023-10-02T11:40:40.021Z,21.50
2023-10-02T11:43:09.148Z,21.50
2023-10-02T11:45:37.987Z,21.55
2023-10-02T11:48:10.645Z,21.69
2023-10-02T11:50:40.926Z,21.64
2023-10-02T11:53:09.277Z,21.64
2023-10-02T11:55:37.596Z,21.75
2023-10-02T11:58:06.349Z,21.81
2023-10-02T12:00:34.518Z,21.75
2023-10-02T12:03:03.925Z,21.71
2023-10-02T12:05:38.137Z,21.71
2023-10-02T12:08:08.667Z,21.74
2023-10-02T12:10:40.692Z,21.75
2023-10-02T12:13:10.330Z,21.77
2023-10-02T12:15:39.371Z,21.77
2023-10-02T12:18:08.433Z,21.75
2023-10-02T12:20:40.785Z,21.76
2023-10-02T12:23:10.874Z,21.82
2023-10-02T12:25:39.299Z,21.78
2023-10-02T12:28:10.477Z,21.83
2023-10-02T12:30:38.930Z,21.82
2023-10-02T12:33:07.604Z,21.84
2023-10-02T12:35:38.239Z,21.81
2023-10-02T12:38:08.533Z,21.80
2023-10-02T12:40:38.459Z,21.75
2023-10-02T12:43:06.720Z,21.71
2023-10-02T12:45:37.602Z,21.73
2023-10-02T12:48:08.734Z,21.72
2023-10-02T12:50:41.476Z,21.75
